Time;durP1;ratioP1;P1;durP2;ratioP2;P2;SDS_P1;SDS_P2;PMS_P1;PMS_P2;Temp;Humidity;BMP_temperature;BMP_pressure;BME280_temperature;BME280_humidity;BME280_pressure;Samples;Min_cycle;Max_cycle;Signal;HPM_P1;HPM_P2
2021/08/29 00:00:23;;;;;;;3.75;2.97;;;;;;;;;;4957381;28;20058;-53
2021/08/29 00:02:49;;;;;;;4.53;3.33;;;;;;;;;;4964328;28;20051;-55
2021/08/29 00:05:16;;;;;;;4.32;2.80;;;;;;;;;;4961194;28;20093;-55
2021/08/29 00:07:43;;;;;;;4.93;2.90;;;;;;;;;;4972987;28;20075;-55
2021/08/29 00:10:10;;;;;;;3.83;2.78;;;;;;;;;;4951732;28;20093;-53
2021/08/29 00:12:37;;;;;;;3.67;2.78;;;;;;;;;;4972718;28;20049;-54
2021/08/29 00:15:04;;;;;;;5.68;2.75;;;;;;;;;;4968978;28;20097;-54
2021/08/29 00:17:31;;;;;;;3.47;2.55;;;;;;;;;;4964873;28;20082;-55
2021/08/29 00:19:58;;;;;;;3.80;2.80;;;;;;;;;;4968777;28;20681;-52
2021/08/29 00:22:25;;;;;;;3.45;2.65;;;;;;;;;;4967154;28;20085;-53
2021/08/29 00:24:52;;;;;;;3.05;2.60;;;;;;;;;;4954157;28;20042;-55
2021/08/29 00:27:19;;;;;;;4.30;2.83;;;;;;;;;;4964312;28;20057;-56
2021/08/29 00:29:45;;;;;;;3.88;2.80;;;;;;;;;;4973173;28;20089;-57
2021/08/29 00:32:13;;;;;;;3.90;2.90;;;;;;;;;;4971308;28;20129;-55
2021/08/29 00:34:42;;;;;;;3.58;2.95;;;;;;;;;;4963964;28;20475;-56
2021/08/29 00:37:09;;;;;;;4.28;3.10;;;;;;;;;;4958472;28;20043;-52
2021/08/29 00:39:36;;;;;;;4.55;3.20;;;;;;;;;;4962138;28;20043;-56
2021/08/29 00:42:05;;;;;;;3.80;2.75;;;;;;;;;;4962648;28;20496;-55
2021/08/29 00:44:32;;;;;;;4.30;2.88;;;;;;;;;;4961373;28;20047;-54
2021/08/29 00:47:02;;;;;;;3.92;2.80;;;;;;;;;;4961807;28;20043;-54
2021/08/29 00:49:36;;;;;;;3.35;2.42;;;;;;;;;;4959311;28;20396;-60
2021/08/29 00:52:04;;;;;;;3.80;2.83;;;;;;;;;;4970994;28;20106;-58
2021/08/29 00:54:31;;;;;;;3.88;2.88;;;;;;;;;;4962571;28;20050;-56
2021/08/29 00:57:00;;;;;;;4.28;2.88;;;;;;;;;;4964862;28;20054;-57
2021/08/29 00:59:28;;;;;;;4.32;2.80;;;;;;;;;;4957101;28;20039;-57
2021/08/29 01:01:59;;;;;;;4.10;2.53;;;;;;;;;;4962669;28;20109;-58
2021/08/29 01:04:31;;;;;;;3.38;2.65;;;;;;;;;;4958701;28;20031;-57
2021/08/29 01:07:02;;;;;;;3.95;2.80;;;;;;;;;;4968600;28;20039;-56
2021/08/29 01:09:43;;;;;;;3.80;3.10;;;;;;;;;;4970880;28;20477;-56
2021/08/29 01:12:10;;;;;;;4.07;2.88;;;;;;;;;;4960563;28;20416;-57
2021/08/29 01:14:51;;;;;;;5.00;2.92;;;;;;;;;;4947013;28;20409;-59
2021/08/29 01:17:23;;;;;;;4.47;2.95;;;;;;;;;;4942389;28;20051;-57
2021/08/29 01:19:54;;;;;;;3.78;2.95;;;;;;;;;;4955105;28;20089;-54
2021/08/29 01:22:21;;;;;;;4.03;2.95;;;;;;;;;;4946204;28;20488;-55
2021/08/29 01:24:49;;;;;;;4.97;3.00;;;;;;;;;;4970281;28;20038;-57
2021/08/29 01:27:21;;;;;;;4.05;2.95;;;;;;;;;;4947229;28;20078;-56
2021/08/29 01:29:48;;;;;;;5.15;3.25;;;;;;;;;;4939970;28;20416;-57
2021/08/29 01:32:15;;;;;;;4.07;3.15;;;;;;;;;;4963561;28;20081;-55
2021/08/29 01:34:50;;;;;;;6.25;3.00;;;;;;;;;;4964366;28;20047;-55
2021/08/29 01:37:37;;;;;;;4.93;3.22;;;;;;;;;;4966059;28;20043;-57
2021/08/29 01:40:04;;;;;;;4.93;2.97;;;;;;;;;;4966193;28;20050;-56
2021/08/29 01:42:33;;;;;;;3.90;2.90;;;;;;;;;;4953785;28;20746;-56
2021/08/29 01:45:05;;;;;;;4.93;3.15;;;;;;;;;;4966220;28;20039;-57
2021/08/29 01:47:32;;;;;;;10.40;7.45;;;;;;;;;;4964938;28;20043;-54
2021/08/29 01:49:59;;;;;;;5.25;3.40;;;;;;;;;;4960789;28;20032;-51
2021/08/29 01:52:27;;;;;;;4.00;2.90;;;;;;;;;;4958337;28;20444;-48
2021/08/29 01:55:26;;;;;;;4.28;2.88;;;;;;;;;;4977886;28;20145;-51
2021/08/29 01:58:20;;;;;;;4.85;3.00;;;;;;;;;;4966451;28;20464;-52
2021/08/29 02:00:56;;;;;;;4.63;2.90;;;;;;;;;;4974647;28;20043;-53
2021/08/29 02:03:29;;;;;;;4.90;2.95;;;;;;;;;;4964905;28;20045;-50
2021/08/29 02:06:24;;;;;;;4.82;3.00;;;;;;;;;;4958562;28;20043;-52
2021/08/29 02:09:03;;;;;;;4.55;3.13;;;;;;;;;;4965639;28;20034;-55
2021/08/29 02:11:37;;;;;;;3.83;2.90;;;;;;;;;;4962836;28;20039;-52
2021/08/29 02:14:08;;;;;;;3.05;2.42;;;;;;;;;;4967256;28;20043;-50
2021/08/29 02:16:40;;;;;;;3.22;2.40;;;;;;;;;;4957453;28;20042;-52
2021/08/29 02:19:07;;;;;;;4.55;2.70;;;;;;;;;;4968732;28;20151;-54
2021/08/29 02:21:35;;;;;;;3.92;2.47;;;;;;;;;;4963666;28;20050;-52
2021/08/29 02:24:04;;;;;;;3.00;2.10;;;;;;;;;;4965705;28;20039;-55
2021/08/29 02:26:31;;;;;;;2.97;2.33;;;;;;;;;;4968563;28;20047;-50
2021/08/29 02:29:09;;;;;;;4.05;2.45;;;;;;;;;;4974258;28;20050;-52
2021/08/29 02:31:37;;;;;;;3.47;2.28;;;;;;;;;;4968480;28;20345;-51
2021/08/29 02:34:04;;;;;;;3.53;2.50;;;;;;;;;;4968685;28;20361;-51
2021/08/29 02:36:31;;;;;;;3.35;1.98;;;;;;;;;;4959886;28;20063;-53
2021/08/29 02:39:00;;;;;;;4.72;2.50;;;;;;;;;;4971754;28;20038;-49
2021/08/29 02:41:27;;;;;;;2.90;2.30;;;;;;;;;;4965210;28;20464;-53
2021/08/29 02:43:56;;;;;;;4.65;2.30;;;;;;;;;;4968786;28;20035;-54
2021/08/29 02:46:24;;;;;;;3.63;2.42;;;;;;;;;;4958949;28;20047;-52
2021/08/29 02:48:51;;;;;;;3.45;2.30;;;;;;;;;;4954581;28;20046;-51
2021/08/29 02:51:21;;;;;;;3.40;2.40;;;;;;;;;;4978516;28;20078;-52
2021/08/29 02:53:51;;;;;;;;;;;;;;;;;;4962435;28;20047;-53
2021/08/29 02:56:19;;;;;;;3.15;2.20;;;;;;;;;;4959438;28;20364;-54
2021/08/29 02:59:01;;;;;;;3.67;2.45;;;;;;;;;;4968999;28;20078;-51
2021/08/29 03:01:35;;;;;;;3.28;2.33;;;;;;;;;;4963285;28;20389;-52
2021/08/29 03:04:17;;;;;;;3.80;2.60;;;;;;;;;;4961409;28;20043;-54
2021/08/29 03:06:44;;;;;;;3.30;2.60;;;;;;;;;;4961681;28;20103;-50
2021/08/29 03:09:11;;;;;;;3.80;2.90;;;;;;;;;;4962783;28;20054;-51
2021/08/29 03:11:42;;;;;;;5.03;2.60;;;;;;;;;;4972002;28;20043;-51
2021/08/29 03:14:15;;;;;;;3.55;2.78;;;;;;;;;;4958186;28;20140;-54
2021/08/29 03:16:42;;;;;;;3.55;2.60;;;;;;;;;;4947894;28;20488;-50
2021/08/29 03:19:28;;;;;;;3.30;2.45;;;;;;;;;;4963965;28;20043;-53
2021/08/29 03:22:17;;;;;;;3.38;2.35;;;;;;;;;;4958982;28;20157;-53
2021/08/29 03:24:44;;;;;;;5.53;2.72;;;;;;;;;;4972770;28;20500;-51
2021/08/29 03:27:12;;;;;;;3.60;2.70;;;;;;;;;;4969367;28;20093;-55
2021/08/29 03:29:40;;;;;;;4.38;2.80;;;;;;;;;;4957186;28;20484;-55
2021/08/29 03:32:07;;;;;;;3.42;2.47;;;;;;;;;;4940575;29;20070;-52
2021/08/29 03:34:37;;;;;;;4.30;3.08;;;;;;;;;;4971661;28;20089;-51
2021/08/29 03:37:05;;;;;;;5.55;2.92;;;;;;;;;;4974979;28;20408;-52
2021/08/29 03:39:40;;;;;;;4.35;3.25;;;;;;;;;;4968964;28;20077;-54
2021/08/29 03:42:08;;;;;;;5.00;2.95;;;;;;;;;;4952766;28;20057;-51
2021/08/29 03:44:35;;;;;;;5.57;3.22;;;;;;;;;;4954002;28;20043;-54
2021/08/29 03:47:02;;;;;;;4.75;3.13;;;;;;;;;;4965194;28;20113;-51
2021/08/29 03:49:37;;;;;;;4.57;3.17;;;;;;;;;;4971406;28;20053;-51
2021/08/29 03:52:06;;;;;;;4.30;3.25;;;;;;;;;;4956845;28;20543;-51
2021/08/29 03:54:56;;;;;;;4.50;3.45;;;;;;;;;;4971564;28;20306;-50
2021/08/29 03:57:22;;;;;;;5.35;3.50;;;;;;;;;;4969220;28;20051;-50
2021/08/29 03:59:50;;;;;;;5.07;3.40;;;;;;;;;;4954166;28;20472;-49
2021/08/29 04:02:17;;;;;;;4.57;3.33;;;;;;;;;;4964722;28;20070;-51
2021/08/29 04:04:44;;;;;;;5.47;3.85;;;;;;;;;;4968576;28;20501;-51
2021/08/29 04:07:13;;;;;;;5.70;3.75;;;;;;;;;;4971381;28;20045;-50
2021/08/29 04:09:51;;;;;;;5.07;3.90;;;;;;;;;;4971609;28;20133;-50
2021/08/29 04:12:18;;;;;;;5.47;4.20;;;;;;;;;;4971399;28;20101;-49
2021/08/29 04:15:04;;;;;;;5.28;4.18;;;;;;;;;;4959872;28;20042;-50
2021/08/29 04:17:31;;;;;;;6.03;4.30;;;;;;;;;;4947618;28;20047;-49
2021/08/29 04:20:00;;;;;;;6.55;4.30;;;;;;;;;;4953462;28;20050;-51
2021/08/29 04:22:27;;;;;;;6.82;4.75;;;;;;;;;;4958962;28;20043;-53
2021/08/29 04:24:53;;;;;;;8.90;4.90;;;;;;;;;;4940071;28;20035;-51
2021/08/29 04:27:21;;;;;;;6.50;4.78;;;;;;;;;;4984088;28;20130;-53
2021/08/29 04:29:49;;;;;;;6.20;4.90;;;;;;;;;;4951307;28;20461;-55
2021/08/29 04:32:17;;;;;;;7.38;4.75;;;;;;;;;;4953554;28;20039;-52
2021/08/29 04:34:44;;;;;;;6.00;4.50;;;;;;;;;;5013297;23;20403;-52
2021/08/29 04:37:33;;;;;;;7.13;4.90;;;;;;;;;;5011580;28;20042;-49
2021/08/29 04:40:08;;;;;;;7.13;5.28;;;;;;;;;;4994891;28;20050;-50
2021/08/29 04:42:44;;;;;;;6.82;4.93;;;;;;;;;;5024189;28;20038;-49
2021/08/29 04:45:12;;;;;;;6.60;4.93;;;;;;;;;;5009558;28;20141;-48
2021/08/29 04:47:39;;;;;;;6.88;4.90;;;;;;;;;;5010398;28;20038;-49
2021/08/29 04:50:06;;;;;;;7.88;5.60;;;;;;;;;;5004474;28;20068;-51
2021/08/29 04:52:33;;;;;;;8.65;5.43;;;;;;;;;;5010374;28;20038;-53
2021/08/29 04:55:01;;;;;;;8.10;5.78;;;;;;;;;;5006052;28;20044;-50
2021/08/29 04:57:30;;;;;;;7.25;5.60;;;;;;;;;;4983903;28;20136;-50
2021/08/29 04:59:57;;;;;;;7.72;5.80;;;;;;;;;;5009577;28;20050;-53
2021/08/29 05:02:24;;;;;;;7.32;5.68;;;;;;;;;;5010201;28;20070;-50
2021/08/29 05:04:51;;;;;;;7.78;5.72;;;;;;;;;;5010421;28;20101;-49
2021/08/29 05:07:19;;;;;;;11.98;6.22;;;;;;;;;;4994084;28;20041;-48
2021/08/29 05:09:49;;;;;;;8.57;6.20;;;;;;;;;;5009608;28;20053;-48
2021/08/29 05:12:16;;;;;;;8.40;6.32;;;;;;;;;;5009982;28;20038;-48
2021/08/29 05:14:44;;;;;;;9.98;6.75;;;;;;;;;;5009265;28;20038;-50
2021/08/29 05:17:11;;;;;;;9.23;7.10;;;;;;;;;;5009801;28;20503;-56
2021/08/29 05:19:48;;;;;;;9.70;6.60;;;;;;;;;;5000482;28;20092;-51
2021/08/29 05:22:40;;;;;;;11.52;7.22;;;;;;;;;;5009069;28;20050;-51
2021/08/29 05:25:26;;;;;;;9.93;7.30;;;;;;;;;;5010669;28;20052;-50
2021/08/29 05:27:53;;;;;;;10.77;7.68;;;;;;;;;;5008458;28;20042;-50
2021/08/29 05:30:20;;;;;;;11.48;7.25;;;;;;;;;;5012984;28;20040;-50
2021/08/29 05:32:47;;;;;;;9.98;7.20;;;;;;;;;;5014123;28;20037;-51
2021/08/29 05:35:14;;;;;;;9.07;7.07;;;;;;;;;;5000332;28;20523;-52
2021/08/29 05:37:41;;;;;;;11.65;7.38;;;;;;;;;;5014991;28;20049;-49
2021/08/29 05:40:26;;;;;;;10.05;7.45;;;;;;;;;;5001297;28;20727;-52
2021/08/29 05:43:12;;;;;;;10.00;7.47;;;;;;;;;;4996635;28;20120;-49
2021/08/29 05:45:38;;;;;;;10.90;7.15;;;;;;;;;;5012599;28;20037;-48
2021/08/29 05:48:05;;;;;;;11.18;7.63;;;;;;;;;;5012905;28;20034;-51
2021/08/29 05:50:32;;;;;;;10.05;7.50;;;;;;;;;;5013324;28;20038;-48
2021/08/29 05:52:59;;;;;;;10.18;7.68;;;;;;;;;;5014777;28;20050;-49
2021/08/29 05:55:26;;;;;;;11.30;8.07;;;;;;;;;;5011902;28;20042;-51
2021/08/29 05:57:54;;;;;;;11.02;7.88;;;;;;;;;;5013603;28;20038;-50
2021/08/29 06:00:21;;;;;;;13.13;8.52;;;;;;;;;;5013971;28;20514;-54
2021/08/29 06:02:52;;;;;;;10.77;8.10;;;;;;;;;;5009576;28;20100;-51
2021/08/29 06:05:20;;;;;;;11.30;7.78;;;;;;;;;;5022382;28;20048;-54
2021/08/29 06:08:01;;;;;;;10.80;8.00;;;;;;;;;;5013474;28;20099;-53
2021/08/29 06:10:29;;;;;;;12.13;8.77;;;;;;;;;;5002115;28;20038;-54
2021/08/29 06:12:56;;;;;;;13.07;9.25;;;;;;;;;;5013217;28;20096;-53
2021/08/29 06:15:23;;;;;;;12.63;9.02;;;;;;;;;;5015667;28;20042;-52
2021/08/29 06:17:50;;;;;;;10.88;7.90;;;;;;;;;;5009371;28;20033;-50
2021/08/29 06:20:17;;;;;;;12.57;9.00;;;;;;;;;;5012733;28;20155;-50
2021/08/29 06:22:44;;;;;;;12.73;8.82;;;;;;;;;;5012667;28;20073;-50
2021/08/29 06:25:29;;;;;;;17.42;9.38;;;;;;;;;;4994374;28;20066;-53
2021/08/29 06:28:14;;;;;;;12.88;9.65;;;;;;;;;;5013945;28;20042;-51
2021/08/29 06:31:00;;;;;;;13.32;8.98;;;;;;;;;;5014144;28;20092;-50
2021/08/29 06:33:45;;;;;;;13.82;8.80;;;;;;;;;;5013905;28;20034;-52
2021/08/29 06:36:17;;;;;;;11.52;9.10;;;;;;;;;;4988280;28;20132;-54
2021/08/29 06:38:43;;;;;;;11.30;8.63;;;;;;;;;;4996301;28;20113;-53
2021/08/29 06:41:10;;;;;;;12.45;8.55;;;;;;;;;;5011631;28;20121;-54
2021/08/29 06:43:37;;;;;;;14.20;9.73;;;;;;;;;;5012261;28;20138;-53
2021/08/29 06:46:22;;;;;;;13.85;10.13;;;;;;;;;;5001771;28;20046;-54
2021/08/29 06:49:08;;;;;;;13.32;9.70;;;;;;;;;;4998701;28;20052;-51
2021/08/29 06:51:57;;;;;;;12.77;9.55;;;;;;;;;;4985167;28;20061;-51
2021/08/29 06:54:50;;;;;;;12.07;8.93;;;;;;;;;;5012818;28;20034;-49
2021/08/29 06:57:38;;;;;;;12.23;8.55;;;;;;;;;;4995798;28;20458;-53
2021/08/29 07:00:05;;;;;;;13.25;9.40;;;;;;;;;;5011058;28;20121;-50
2021/08/29 07:02:32;;;;;;;12.80;9.70;;;;;;;;;;5028656;28;20565;-50
2021/08/29 07:04:59;;;;;;;14.07;10.00;;;;;;;;;;5007140;28;20349;-49
2021/08/29 07:07:26;;;;;;;11.65;9.05;;;;;;;;;;4993661;28;20404;-53
2021/08/29 07:10:09;;;;;;;11.02;8.10;;;;;;;;;;4994012;28;20056;-51
2021/08/29 07:12:56;;;;;;;12.02;9.18;;;;;;;;;;5013193;28;20566;-47
2021/08/29 07:15:30;;;;;;;11.85;8.48;;;;;;;;;;4993843;28;20097;-49
2021/08/29 07:17:58;;;;;;;12.20;9.10;;;;;;;;;;5003847;28;20037;-47
2021/08/29 07:20:45;;;;;;;12.95;9.65;;;;;;;;;;5010603;28;20511;-51
2021/08/29 07:23:30;;;;;;;13.48;8.25;;;;;;;;;;5012117;28;20041;-48
2021/08/29 07:26:15;;;;;;;10.05;7.57;;;;;;;;;;5011902;28;20045;-52
2021/08/29 07:29:01;;;;;;;10.80;7.32;;;;;;;;;;5010579;28;20385;-51
2021/08/29 07:32:03;;;;;;;10.32;7.90;;;;;;;;;;4987297;28;20044;-51
2021/08/29 07:34:30;;;;;;;9.15;7.03;;;;;;;;;;5002545;28;20103;-48
2021/08/29 07:37:29;;;;;;;9.40;7.78;;;;;;;;;;5012875;28;20676;-49
2021/08/29 07:39:56;;;;;;;8.30;7.05;;;;;;;;;;4996968;28;20038;-48
2021/08/29 07:42:24;;;;;;;9.27;6.63;;;;;;;;;;4992117;28;20058;-52
2021/08/29 07:44:50;;;;;;;8.68;6.68;;;;;;;;;;5008228;28;20081;-51
2021/08/29 07:47:27;;;;;;;8.18;6.25;;;;;;;;;;5007593;28;20042;-49
2021/08/29 07:49:54;;;;;;;8.05;6.13;;;;;;;;;;5004856;28;20046;-52
2021/08/29 07:52:21;;;;;;;8.80;6.57;;;;;;;;;;5007957;28;20034;-53
2021/08/29 07:55:06;;;;;;;7.43;5.78;;;;;;;;;;5008758;28;20095;-49
2021/08/29 07:57:49;;;;;;;8.35;6.70;;;;;;;;;;5002631;28;20304;-53
2021/08/29 08:00:22;;;;;;;6.25;5.32;;;;;;;;;;5010130;28;20038;-53
2021/08/29 08:03:09;;;;;;;6.80;5.28;;;;;;;;;;4993842;28;20104;-49
2021/08/29 08:06:11;;;;;;;8.38;5.65;;;;;;;;;;4963610;28;20087;-50
2021/08/29 08:08:43;;;;;;;5.67;4.67;;;;;;;;;;5004371;28;20061;-48
2021/08/29 08:11:39;;;;;;;6.90;5.57;;;;;;;;;;4959288;28;20702;-53
2021/08/29 08:14:06;;;;;;;7.47;4.85;;;;;;;;;;5001913;28;20377;-51
2021/08/29 08:16:33;;;;;;;6.68;4.82;;;;;;;;;;5005755;28;20431;-52
2021/08/29 08:19:07;;;;;;;5.80;4.85;;;;;;;;;;5023732;28;20137;-50
2021/08/29 08:21:34;;;;;;;6.07;4.50;;;;;;;;;;4992177;28;20098;-49
2021/08/29 08:24:10;;;;;;;6.90;4.63;;;;;;;;;;4999286;28;20031;-49
2021/08/29 08:26:55;;;;;;;5.85;4.80;;;;;;;;;;5006490;28;21548;-53
2021/08/29 08:29:40;;;;;;;5.18;4.00;;;;;;;;;;5001897;28;20514;-49
2021/08/29 08:32:42;;;;;;;5.68;4.28;;;;;;;;;;4988101;28;20069;-54
2021/08/29 08:35:35;;;;;;;6.40;4.23;;;;;;;;;;4997633;28;20049;-51
2021/08/29 08:38:19;;;;;;;5.60;4.57;;;;;;;;;;5022475;28;20305;-51
2021/08/29 08:41:21;;;;;;;6.97;5.35;;;;;;;;;;4996370;28;20057;-50
2021/08/29 08:44:12;;;;;;;5.85;4.60;;;;;;;;;;5005740;28;20038;-49
2021/08/29 08:47:00;;;;;;;5.85;4.63;;;;;;;;;;4993614;28;20031;-48
2021/08/29 08:49:45;;;;;;;5.85;4.60;;;;;;;;;;5002616;28;20045;-51
2021/08/29 08:52:31;;;;;;;7.18;5.75;;;;;;;;;;5006537;28;20113;-52
2021/08/29 08:55:16;;;;;;;7.25;4.82;;;;;;;;;;5003417;28;20161;-47
2021/08/29 08:58:09;;;;;;;5.50;4.43;;;;;;;;;;4999069;28;20057;-50
2021/08/29 09:00:42;;;;;;;;;;;;;;;;;;5004822;28;20044;-48
2021/08/29 09:03:28;;;;;;;6.35;5.30;;;;;;;;;;5009051;28;19928;-51
2021/08/29 09:06:11;;;;;;;8.57;6.28;;;;;;;;;;5009242;28;20423;-50
2021/08/29 09:08:38;;;;;;;5.80;5.00;;;;;;;;;;5008389;28;20042;-53
2021/08/29 09:11:05;;;;;;;5.47;4.70;;;;;;;;;;4994415;28;20038;-50
2021/08/29 09:13:52;;;;;;;6.35;4.47;;;;;;;;;;5009195;28;20038;-49
2021/08/29 09:16:20;;;;;;;5.40;4.45;;;;;;;;;;5010289;28;20511;-51
2021/08/29 09:18:51;;;;;;;5.60;4.38;;;;;;;;;;5003294;28;20038;-54
2021/08/29 09:21:19;;;;;;;6.72;4.82;;;;;;;;;;5009832;28;20042;-51
2021/08/29 09:23:46;;;;;;;6.32;4.53;;;;;;;;;;5006590;28;20102;-50
2021/08/29 09:26:40;;;;;;;6.43;4.53;;;;;;;;;;4998543;28;20185;-51
2021/08/29 09:29:25;;;;;;;7.00;5.05;;;;;;;;;;5009833;28;20037;-51
2021/08/29 09:31:56;;;;;;;6.32;5.22;;;;;;;;;;5009601;28;20448;-55
2021/08/29 09:34:37;;;;;;;6.60;5.55;;;;;;;;;;5004136;28;20034;-51
2021/08/29 09:37:08;;;;;;;6.28;5.10;;;;;;;;;;5003088;28;20070;-51
2021/08/29 09:40:14;;;;;;;6.88;4.95;;;;;;;;;;4999967;28;20058;-51
2021/08/29 09:43:02;;;;;;;6.40;5.55;;;;;;;;;;4989810;28;20069;-49
2021/08/29 09:45:34;;;;;;;6.97;5.72;;;;;;;;;;5008860;28;20045;-52
2021/08/29 09:48:25;;;;;;;6.15;5.07;;;;;;;;;;5005631;28;20050;-51
2021/08/29 09:51:11;;;;;;;6.90;5.78;;;;;;;;;;5009674;28;20527;-52
2021/08/29 09:53:54;;;;;;;7.30;6.13;;;;;;;;;;5008190;28;20042;-47
2021/08/29 09:56:48;;;;;;;7.20;6.20;;;;;;;;;;5017225;28;20137;-50
2021/08/29 09:59:43;;;;;;;9.77;6.43;;;;;;;;;;5016008;28;20089;-49
2021/08/29 10:02:30;;;;;;;9.18;6.90;;;;;;;;;;5012491;28;20428;-51
2021/08/29 10:05:17;;;;;;;8.65;6.60;;;;;;;;;;5007044;28;20352;-49
2021/08/29 10:08:09;;;;;;;7.82;6.60;;;;;;;;;;5003959;28;20042;-48
2021/08/29 10:11:02;;;;;;;7.15;6.32;;;;;;;;;;5007202;28;20345;-49
2021/08/29 10:13:29;;;;;;;6.72;5.63;;;;;;;;;;5013050;28;20038;-47
2021/08/29 10:16:12;;;;;;;7.13;5.53;;;;;;;;;;5012200;28;20117;-49
2021/08/29 10:19:14;;;;;;;6.78;5.22;;;;;;;;;;5002963;28;20045;-50
2021/08/29 10:22:00;;;;;;;8.18;4.97;;;;;;;;;;5009075;28;20057;-51
2021/08/29 10:24:29;;;;;;;6.53;5.03;;;;;;;;;;5012418;28;20111;-52
2021/08/29 10:27:01;;;;;;;5.70;4.72;;;;;;;;;;5012218;28;20085;-52
2021/08/29 10:29:49;;;;;;;5.85;4.47;;;;;;;;;;5009600;28;20046;-52
2021/08/29 10:32:35;;;;;;;5.70;4.25;;;;;;;;;;5011202;28;20042;-52
2021/08/29 10:35:42;;;;;;;4.75;3.72;;;;;;;;;;4953712;28;20125;-50
2021/08/29 10:38:29;;;;;;;6.30;3.60;;;;;;;;;;4952784;28;20039;-51
2021/08/29 10:41:20;;;;;;;4.32;3.05;;;;;;;;;;4972187;28;20093;-50
2021/08/29 10:43:48;;;;;;;5.60;3.47;;;;;;;;;;5011718;28;20061;-47
2021/08/29 10:46:36;;;;;;;3.80;2.90;;;;;;;;;;5009226;28;20096;-49
2021/08/29 10:49:22;;;;;;;3.70;2.78;;;;;;;;;;5010288;28;20038;-50
2021/08/29 10:51:52;;;;;;;4.57;3.00;;;;;;;;;;5010561;28;20042;-49
2021/08/29 10:54:19;;;;;;;4.60;2.90;;;;;;;;;;5007825;28;20039;-48
2021/08/29 10:56:48;;;;;;;5.03;2.90;;;;;;;;;;5009350;28;20050;-49
2021/08/29 10:59:20;;;;;;;4.13;2.80;;;;;;;;;;5006098;28;20484;-52
2021/08/29 11:01:55;;;;;;;3.80;2.70;;;;;;;;;;5006615;28;20117;-51
2021/08/29 11:04:28;;;;;;;3.72;2.70;;;;;;;;;;5002172;28;20101;-53
2021/08/29 11:07:03;;;;;;;3.00;2.28;;;;;;;;;;4993731;28;20034;-49
2021/08/29 11:09:34;;;;;;;3.30;2.40;;;;;;;;;;5003625;28;20062;-53
2021/08/29 11:12:04;;;;;;;3.25;2.42;;;;;;;;;;5003877;28;20499;-52
2021/08/29 11:14:44;;;;;;;2.88;2.05;;;;;;;;;;5011096;28;20130;-50
2021/08/29 11:17:13;;;;;;;2.90;1.80;;;;;;;;;;5010570;28;20073;-50
2021/08/29 11:20:01;;;;;;;2.53;1.90;;;;;;;;;;4993083;28;20042;-49
2021/08/29 11:23:02;;;;;;;3.13;2.40;;;;;;;;;;4990802;28;20439;-48
2021/08/29 11:25:35;;;;;;;3.10;2.20;;;;;;;;;;5008735;28;20081;-49
2021/08/29 11:28:29;;;;;;;2.72;1.98;;;;;;;;;;4995102;28;20104;-49
2021/08/29 11:31:09;;;;;;;2.58;2.13;;;;;;;;;;5007367;28;20041;-51
2021/08/29 11:34:04;;;;;;;3.53;2.20;;;;;;;;;;4995018;28;20049;-49
2021/08/29 11:36:31;;;;;;;3.70;2.38;;;;;;;;;;4998545;28;20050;-52
2021/08/29 11:38:58;;;;;;;2.97;2.50;;;;;;;;;;4993118;28;20415;-49
2021/08/29 11:41:25;;;;;;;3.28;2.40;;;;;;;;;;4992060;28;20057;-48
2021/08/29 11:43:54;;;;;;;3.15;2.35;;;;;;;;;;4997554;28;20054;-47
2021/08/29 11:46:37;;;;;;;2.95;2.08;;;;;;;;;;5011011;28;20516;-48
2021/08/29 11:49:15;;;;;;;3.35;2.30;;;;;;;;;;5010329;28;20520;-48
2021/08/29 11:52:08;;;;;;;3.15;2.30;;;;;;;;;;5010898;28;20045;-48
2021/08/29 11:54:39;;;;;;;4.22;2.63;;;;;;;;;;5010766;28;20099;-49
2021/08/29 11:57:14;;;;;;;3.28;2.50;;;;;;;;;;5005365;28;20042;-52
2021/08/29 11:59:41;;;;;;;5.00;2.47;;;;;;;;;;5008673;28;20076;-53
2021/08/29 12:02:19;;;;;;;5.25;2.13;;;;;;;;;;5012213;28;20042;-52
2021/08/29 12:05:05;;;;;;;4.00;2.55;;;;;;;;;;5015347;28;20723;-54
2021/08/29 12:08:04;;;;;;;6.28;2.80;;;;;;;;;;5006276;28;20038;-55
2021/08/29 12:10:51;;;;;;;4.90;3.17;;;;;;;;;;4992890;28;20049;-55
2021/08/29 12:13:44;;;;;;;5.18;3.00;;;;;;;;;;4987336;28;20154;-56
2021/08/29 12:16:30;;;;;;;4.82;3.30;;;;;;;;;;5011852;28;20034;-56
2021/08/29 12:19:12;;;;;;;2.92;2.30;;;;;;;;;;5006419;28;20507;-56
2021/08/29 12:22:08;;;;;;;3.95;2.50;;;;;;;;;;5021053;28;20121;-56
2021/08/29 12:24:57;;;;;;;2.45;2.17;;;;;;;;;;5021696;28;20399;-53
2021/08/29 12:27:25;;;;;;;3.38;2.58;;;;;;;;;;5023701;28;20084;-53
2021/08/29 12:29:54;;;;;;;3.88;2.83;;;;;;;;;;5014300;28;20034;-53
2021/08/29 12:32:24;;;;;;;3.30;2.50;;;;;;;;;;5018531;28;20041;-54
2021/08/29 12:34:52;;;;;;;4.25;3.10;;;;;;;;;;5001829;28;20037;-51
2021/08/29 12:37:19;;;;;;;4.20;3.13;;;;;;;;;;5018332;28;20057;-48
2021/08/29 12:39:56;;;;;;;2.92;2.05;;;;;;;;;;5001071;28;20100;-53
2021/08/29 12:42:34;;;;;;;4.13;2.95;;;;;;;;;;5017888;28;20060;-54
2021/08/29 12:45:09;;;;;;;3.72;3.17;;;;;;;;;;5025000;28;20450;-51
2021/08/29 12:47:37;;;;;;;4.30;3.00;;;;;;;;;;5014561;28;20065;-53
2021/08/29 12:50:05;;;;;;;4.63;2.72;;;;;;;;;;5021407;28;20046;-51
2021/08/29 12:52:37;;;;;;;3.50;2.90;;;;;;;;;;5011637;28;20056;-51
2021/08/29 12:55:09;;;;;;;5.30;2.83;;;;;;;;;;5002536;28;20035;-51
2021/08/29 12:57:35;;;;;;;4.47;3.28;;;;;;;;;;4992346;28;20050;-50
2021/08/29 13:00:03;;;;;;;4.30;3.20;;;;;;;;;;4991943;28;20129;-51
2021/08/29 13:02:35;;;;;;;4.07;2.47;;;;;;;;;;4992135;28;20133;-49
2021/08/29 13:05:02;;;;;;;3.67;2.20;;;;;;;;;;4991554;28;20124;-52
2021/08/29 13:07:29;;;;;;;5.05;2.22;;;;;;;;;;4991833;28;20074;-51
2021/08/29 13:10:07;;;;;;;2.83;2.25;;;;;;;;;;4991612;28;20130;-52
2021/08/29 13:12:34;;;;;;;2.72;1.92;;;;;;;;;;4991899;28;20042;-54
2021/08/29 13:15:01;;;;;;;3.30;2.30;;;;;;;;;;4991367;28;20054;-52
2021/08/29 13:17:30;;;;;;;2.97;2.20;;;;;;;;;;4991622;28;20133;-48
2021/08/29 13:19:59;;;;;;;2.95;2.20;;;;;;;;;;4991877;28;20046;-45
2021/08/29 13:22:27;;;;;;;3.60;2.60;;;;;;;;;;4991663;28;20109;-45
2021/08/29 13:24:54;;;;;;;3.53;2.50;;;;;;;;;;4991665;28;20108;-49
2021/08/29 13:27:21;;;;;;;3.33;2.25;;;;;;;;;;4991255;28;20318;-48
2021/08/29 13:29:48;;;;;;;3.67;2.40;;;;;;;;;;4990482;28;20443;-48
2021/08/29 13:32:15;;;;;;;2.85;2.35;;;;;;;;;;4991651;28;20048;-50
2021/08/29 13:34:42;;;;;;;2.88;2.05;;;;;;;;;;4991002;28;20130;-52
2021/08/29 13:37:10;;;;;;;2.88;2.13;;;;;;;;;;4991783;28;20046;-51
2021/08/29 13:39:40;;;;;;;2.75;2.00;;;;;;;;;;4991486;28;20583;-54
2021/08/29 13:42:13;;;;;;;3.95;1.70;;;;;;;;;;4991611;28;20069;-54
2021/08/29 13:44:47;;;;;;;2.30;1.50;;;;;;;;;;4991340;28;20054;-49
2021/08/29 13:47:18;;;;;;;2.22;1.52;;;;;;;;;;4991067;28;20039;-52
2021/08/29 13:49:45;;;;;;;2.83;1.40;;;;;;;;;;4992986;28;20053;-54
2021/08/29 13:52:16;;;;;;;3.72;2.20;;;;;;;;;;5010219;28;20146;-52
2021/08/29 13:54:43;;;;;;;3.00;1.73;;;;;;;;;;4994979;28;20043;-53
2021/08/29 13:57:10;;;;;;;2.55;1.38;;;;;;;;;;4995006;28;20038;-52
2021/08/29 13:59:37;;;;;;;1.35;0.90;;;;;;;;;;4995192;28;20535;-53
2021/08/29 14:02:04;;;;;;;2.20;1.40;;;;;;;;;;4995114;28;20456;-51
2021/08/29 14:04:31;;;;;;;1.55;1.10;;;;;;;;;;4994469;28;20050;-50
2021/08/29 14:06:58;;;;;;;2.67;1.55;;;;;;;;;;4995078;28;20119;-52
2021/08/29 14:09:25;;;;;;;2.05;1.30;;;;;;;;;;4994866;28;20069;-50
2021/08/29 14:11:52;;;;;;;2.17;1.35;;;;;;;;;;4994875;28;20129;-49
2021/08/29 14:14:18;;;;;;;2.92;1.73;;;;;;;;;;4994601;28;20137;-51
2021/08/29 14:16:46;;;;;;;1.42;1.02;;;;;;;;;;5010012;28;20411;-47
2021/08/29 14:19:13;;;;;;;1.42;1.15;;;;;;;;;;4994789;28;20050;-49
2021/08/29 14:21:40;;;;;;;1.10;0.90;;;;;;;;;;4993346;28;20610;-47
2021/08/29 14:24:07;;;;;;;1.20;1.02;;;;;;;;;;4994399;28;20077;-50
2021/08/29 14:26:34;;;;;;;1.65;0.90;;;;;;;;;;5000537;28;20056;-52
2021/08/29 14:29:01;;;;;;;1.95;0.98;;;;;;;;;;5012966;28;20085;-50
2021/08/29 14:31:28;;;;;;;5.70;1.20;;;;;;;;;;5014217;28;20066;-48
2021/08/29 14:33:55;;;;;;;1.17;0.95;;;;;;;;;;5012726;28;20545;-49
2021/08/29 14:36:22;;;;;;;1.25;1.00;;;;;;;;;;5006286;28;20053;-49
2021/08/29 14:38:48;;;;;;;1.15;0.95;;;;;;;;;;4994384;28;20360;-51
2021/08/29 14:41:16;;;;;;;1.33;1.00;;;;;;;;;;4994560;28;20050;-52
2021/08/29 14:43:43;;;;;;;1.55;1.13;;;;;;;;;;4993207;28;20121;-53
2021/08/29 14:46:09;;;;;;;1.25;0.95;;;;;;;;;;4994310;28;20628;-51
2021/08/29 14:48:36;;;;;;;1.50;1.13;;;;;;;;;;4992567;28;20042;-50
2021/08/29 14:51:03;;;;;;;1.70;1.10;;;;;;;;;;4961201;28;20046;-51
2021/08/29 14:53:31;;;;;;;2.05;0.98;;;;;;;;;;4993018;28;20042;-51
2021/08/29 14:55:58;;;;;;;1.20;1.10;;;;;;;;;;4992617;28;20066;-52
2021/08/29 14:58:25;;;;;;;2.10;1.00;;;;;;;;;;5009324;28;20053;-50
2021/08/29 15:00:51;;;;;;;0.93;0.82;;;;;;;;;;4993195;28;20364;-49
2021/08/29 15:03:18;;;;;;;1.20;0.88;;;;;;;;;;4993964;28;20077;-52
2021/08/29 15:05:45;;;;;;;1.63;0.80;;;;;;;;;;4993498;28;20124;-49
2021/08/29 15:08:12;;;;;;;1.42;1.00;;;;;;;;;;4993764;28;20053;-50
2021/08/29 15:10:39;;;;;;;1.48;0.98;;;;;;;;;;4993712;28;20035;-52
2021/08/29 15:13:05;;;;;;;1.27;0.90;;;;;;;;;;4993946;28;20042;-49
2021/08/29 15:15:32;;;;;;;1.48;0.90;;;;;;;;;;4993533;28;20118;-53
2021/08/29 15:17:59;;;;;;;2.58;0.75;;;;;;;;;;4993661;28;20046;-52
2021/08/29 15:20:26;;;;;;;1.13;0.95;;;;;;;;;;4993826;28;20052;-49